Terminal Aerodrome Forecast
Issued by NWS Detroit/Pontiac, MI

Home | Current Version | Previous Version | Text Only | Print | Product List | Glossary On
Versions: 1 2 3 4 5 6 7 8 9 10 11 12
974
FTUS43 KDTX 252320
TAFFNT
TAF
KFNT 252320Z 2600/2624 19012KT P6SM SCT070 BKN250
     FM260100 16005KT P6SM SCT070 BKN250
     FM260800 18005KT 5SM -SHRA BR BKN060 BKN120
     FM261200 20008KT P6SM SCT035 BKN070
     FM261500 20009KT P6SM SCT060
     FM262000 21011KT P6SM BKN070=

USA.gov is the U.S. government's official web portal to all federal, state and local government web resources and services.